createdAt,value
2019-05-12T00:00:23.527Z,94.65
2019-05-12T00:01:23.511Z,94.74
2019-05-12T00:02:23.488Z,94.56
2019-05-12T00:03:23.467Z,94.37
2019-05-12T00:04:23.449Z,94.18
2019-05-12T00:05:23.448Z,94.84
2019-05-12T00:06:23.428Z,94.65
2019-05-12T00:07:23.385Z,94.93
2019-05-12T00:08:23.372Z,94.74
2019-05-12T00:09:23.364Z,94.27
2019-05-12T00:10:23.345Z,94.65
2019-05-12T00:11:23.313Z,95.12
2019-05-12T00:12:23.288Z,95.51
2019-05-12T00:13:23.268Z,96.17
2019-05-12T00:14:23.252Z,96.17
2019-05-12T00:15:23.238Z,95.89
2019-05-12T00:16:23.227Z,97.12
2019-05-12T00:17:23.191Z,96.74
2019-05-12T00:18:23.172Z,97.03
2019-05-12T00:19:23.154Z,96.84
2019-05-12T00:20:23.146Z,97.03
2019-05-12T00:21:23.113Z,97.69
2019-05-12T00:22:23.091Z,97.69
2019-05-12T00:23:27.768Z,97.69
2019-05-12T00:24:23.067Z,97.31
2019-05-12T00:25:23.028Z,97.31
2019-05-12T00:26:23.009Z,98.12
2019-05-12T00:27:23.006Z,98.17
2019-05-12T00:28:22.987Z,98.69
2019-05-12T00:29:22.951Z,98.21
2019-05-12T00:30:22.936Z,98.59
2019-05-12T00:31:22.938Z,98.50
2019-05-12T00:32:22.894Z,97.83
2019-05-12T00:33:22.888Z,98.40
2019-05-12T00:34:22.851Z,98.21
2019-05-12T00:35:22.827Z,98.12
2019-05-12T00:36:22.811Z,97.64
2019-05-12T00:37:22.795Z,98.12
2019-05-12T00:38:22.778Z,98.69
2019-05-12T00:39:22.798Z,99.26
2019-05-12T00:40:22.839Z,98.97
2019-05-12T00:41:22.709Z,99.26
2019-05-12T00:42:22.701Z,98.88
2019-05-12T00:43:22.668Z,99.07
2019-05-12T00:44:22.648Z,98.88
2019-05-12T00:45:22.644Z,99.16
2019-05-12T00:46:22.611Z,98.97
2019-05-12T00:47:22.589Z,99.64
2019-05-12T00:48:22.577Z,99.44
2019-05-12T00:49:22.551Z,99.99
2019-05-12T00:50:22.561Z,99.73
2019-05-12T00:51:22.527Z,99.73
2019-05-12T00:52:22.486Z,99.44
2019-05-12T00:53:36.007Z,99.73
2019-05-12T00:54:22.449Z,99.99
2019-05-12T00:55:22.433Z,99.99
2019-05-12T00:56:22.410Z,99.99
2019-05-12T00:57:22.414Z,99.99
2019-05-12T00:58:22.372Z,99.99
2019-05-12T00:59:22.346Z,99.92
2019-05-12T01:00:22.329Z,99.99
2019-05-12T01:01:22.327Z,99.99
2019-05-12T01:02:22.317Z,99.99
2019-05-12T01:03:22.278Z,99.99
2019-05-12T01:04:22.254Z,99.99
2019-05-12T01:05:22.238Z,99.99
2019-05-12T01:06:22.209Z,99.99
2019-05-12T01:07:22.184Z,99.99
2019-05-12T01:08:22.200Z,99.99
2019-05-12T01:09:22.155Z,99.99
2019-05-12T01:10:22.138Z,99.99
2019-05-12T01:11:22.105Z,99.99
2019-05-12T01:12:22.086Z,99.99
2019-05-12T01:13:22.068Z,99.99
2019-05-12T01:14:22.066Z,99.99
2019-05-12T01:15:22.026Z,99.99
2019-05-12T01:16:22.014Z,99.99
2019-05-12T01:17:21.984Z,99.99
2019-05-12T01:18:21.977Z,99.99
2019-05-12T01:19:21.947Z,99.99
2019-05-12T01:20:21.943Z,99.99
2019-05-12T01:21:21.920Z,99.99
2019-05-12T01:22:21.886Z,99.99
2019-05-12T01:23:23.484Z,99.99
2019-05-12T01:24:21.856Z,99.99
2019-05-12T01:25:21.826Z,99.99
2019-05-12T01:26:21.834Z,99.99
2019-05-12T01:27:21.783Z,99.99
2019-05-12T01:28:21.763Z,99.99
2019-05-12T01:29:21.741Z,99.99
2019-05-12T01:30:21.722Z,99.99
2019-05-12T01:31:21.707Z,99.99
2019-05-12T01:32:21.701Z,99.99
2019-05-12T01:33:21.663Z,99.99
2019-05-12T01:34:21.636Z,99.99
2019-05-12T01:35:21.623Z,99.99
2019-05-12T01:36:21.601Z,99.99
2019-05-12T01:37:21.592Z,99.99
2019-05-12T01:38:21.559Z,99.99
2019-05-12T01:39:21.536Z,99.99
2019-05-12T01:40:21.521Z,99.99
2019-05-12T01:41:21.499Z,99.99
2019-05-12T01:42:21.478Z,99.99
2019-05-12T01:43:21.498Z,99.99
2019-05-12T01:44:21.435Z,99.99
2019-05-12T01:45:21.425Z,99.99
2019-05-12T01:46:21.395Z,99.99
2019-05-12T01:47:21.376Z,99.99
2019-05-12T01:48:21.358Z,99.99
2019-05-12T01:49:21.359Z,99.99
2019-05-12T01:50:21.326Z,99.99
2019-05-12T01:51:21.296Z,99.99
2019-05-12T01:52:21.282Z,99.99
2019-05-12T01:53:21.258Z,99.99
2019-05-12T01:54:21.254Z,99.99
2019-05-12T01:55:21.228Z,99.99
2019-05-12T01:56:21.194Z,99.99
2019-05-12T01:57:21.193Z,99.99
2019-05-12T01:58:21.153Z,99.99
2019-05-12T01:59:21.137Z,99.99
2019-05-12T02:00:21.137Z,99.99
2019-05-12T02:01:21.136Z,99.99
2019-05-12T02:02:21.083Z,99.99
2019-05-12T02:03:21.051Z,99.99
2019-05-12T02:04:21.035Z,99.99
2019-05-12T02:05:21.012Z,99.99
2019-05-12T02:06:21.018Z,99.99
2019-05-12T02:07:20.973Z,99.99
2019-05-12T02:08:20.949Z,99.99
2019-05-12T02:09:20.951Z,99.99
2019-05-12T02:10:20.906Z,99.99
2019-05-12T02:11:20.888Z,99.99
2019-05-12T02:12:20.871Z,99.99
2019-05-12T02:13:20.866Z,99.99
2019-05-12T02:14:20.830Z,99.99
2019-05-12T02:15:20.804Z,99.99
2019-05-12T02:16:20.788Z,99.99
2019-05-12T02:17:20.767Z,99.99
2019-05-12T02:18:20.749Z,99.99
2019-05-12T02:19:20.763Z,99.99
2019-05-12T02:20:20.709Z,99.99
2019-05-12T02:21:20.692Z,99.99
2019-05-12T02:22:20.675Z,99.99
2019-05-12T02:23:20.648Z,99.99
2019-05-12T02:24:26.813Z,99.99
2019-05-12T02:25:20.621Z,99.99
2019-05-12T02:26:20.588Z,99.99
2019-05-12T02:27:20.566Z,99.99
2019-05-12T02:28:20.551Z,99.99
2019-05-12T02:29:20.526Z,99.99
2019-05-12T02:30:20.696Z,99.99
2019-05-12T02:31:21.000Z,99.99
2019-05-12T02:32:20.492Z,99.99
2019-05-12T02:33:20.447Z,99.99
2019-05-12T02:34:20.448Z,99.99
2019-05-12T02:35:20.410Z,99.99
2019-05-12T02:36:20.393Z,99.99
2019-05-12T02:37:20.364Z,99.99
2019-05-12T02:38:20.345Z,99.99
2019-05-12T02:39:20.354Z,99.99
2019-05-12T02:40:20.306Z,99.99
2019-05-12T02:41:20.286Z,99.99
2019-05-12T02:42:20.270Z,99.99
2019-05-12T02:43:20.276Z,99.99
2019-05-12T02:44:20.219Z,99.99
2019-05-12T02:45:20.203Z,99.99
2019-05-12T02:46:20.185Z,99.99
2019-05-12T02:47:20.169Z,99.99
2019-05-12T02:48:20.139Z,99.99
2019-05-12T02:49:20.137Z,99.99
2019-05-12T02:50:20.104Z,99.99
2019-05-12T02:51:20.080Z,99.99
2019-05-12T02:52:20.062Z,99.99
2019-05-12T02:53:20.042Z,99.99
2019-05-12T02:54:20.022Z,99.99
2019-05-12T02:55:20.033Z,99.99
2019-05-12T02:56:19.986Z,99.99
2019-05-12T02:57:19.956Z,99.99
2019-05-12T02:58:19.960Z,99.99
2019-05-12T02:59:19.917Z,99.99
2019-05-12T03:00:19.894Z,99.99
2019-05-12T03:01:19.901Z,99.99
2019-05-12T03:02:19.859Z,99.99
2019-05-12T03:03:19.837Z,99.99
2019-05-12T03:04:19.857Z,99.99
2019-05-12T03:05:19.800Z,99.99
2019-05-12T03:06:19.805Z,99.99
2019-05-12T03:07:19.762Z,99.99
2019-05-12T03:08:19.743Z,99.99
2019-05-12T03:09:19.719Z,99.99
2019-05-12T03:10:19.710Z,99.99
2019-05-12T03:11:19.699Z,99.99
2019-05-12T03:12:19.658Z,99.99
2019-05-12T03:13:19.645Z,99.99
2019-05-12T03:14:19.620Z,99.99
2019-05-12T03:15:19.597Z,99.99
2019-05-12T03:16:19.579Z,99.99
2019-05-12T03:17:19.585Z,99.99
2019-05-12T03:18:19.554Z,99.99
2019-05-12T03:19:19.518Z,99.99
2019-05-12T03:20:19.495Z,99.99
2019-05-12T03:21:19.519Z,99.99
2019-05-12T03:22:19.456Z,99.99
2019-05-12T03:23:19.879Z,99.99
2019-05-12T03:24:19.421Z,99.99
2019-05-12T03:25:24.596Z,99.99
2019-05-12T03:26:19.376Z,99.99
2019-05-12T03:27:19.353Z,99.99
2019-05-12T03:28:19.337Z,99.99
2019-05-12T03:29:19.357Z,99.99
2019-05-12T03:30:20.016Z,99.99
2019-05-12T03:31:24.991Z,99.99
2019-05-12T03:32:19.282Z,99.99
2019-05-12T03:33:20.440Z,99.99
2019-05-12T03:34:20.461Z,99.99
2019-05-12T03:35:19.196Z,99.99
2019-05-12T03:36:19.177Z,99.99
2019-05-12T03:37:19.149Z,99.99
2019-05-12T03:38:19.135Z,99.99
2019-05-12T03:39:19.108Z,99.99
2019-05-12T03:40:19.183Z,99.99
2019-05-12T03:41:19.091Z,99.99
2019-05-12T03:42:19.062Z,99.99
2019-05-12T03:43:19.033Z,99.99
2019-05-12T03:44:19.006Z,99.99
2019-05-12T03:45:18.992Z,99.99
2019-05-12T03:46:18.969Z,99.99
2019-05-12T03:47:25.131Z,99.99
2019-05-12T03:48:18.977Z,99.99
2019-05-12T03:49:18.913Z,99.99
2019-05-12T03:50:18.889Z,99.99
2019-05-12T03:51:18.877Z,99.99
2019-05-12T03:52:18.866Z,99.99
2019-05-12T03:53:18.825Z,99.99
2019-05-12T03:54:18.813Z,99.99
2019-05-12T03:55:34.269Z,99.99
2019-05-12T03:56:18.761Z,99.99
2019-05-12T03:57:18.763Z,99.99
2019-05-12T03:58:18.744Z,99.99
2019-05-12T03:59:18.706Z,99.99
2019-05-12T04:00:18.692Z,99.99
2019-05-12T04:01:18.663Z,99.99
2019-05-12T04:02:18.671Z,99.99
2019-05-12T04:03:18.622Z,99.99
2019-05-12T04:04:18.604Z,99.99
2019-05-12T04:05:18.605Z,99.99
2019-05-12T04:06:18.583Z,99.99
2019-05-12T04:07:18.540Z,99.99
2019-05-12T04:08:18.527Z,99.99
2019-05-12T04:09:18.511Z,99.99
2019-05-12T04:10:18.481Z,99.99
2019-05-12T04:11:18.506Z,99.99
2019-05-12T04:12:18.438Z,99.99
2019-05-12T04:13:18.423Z,99.99
2019-05-12T04:14:18.459Z,99.99
2019-05-12T04:15:18.384Z,99.99
2019-05-12T04:16:18.361Z,99.99
2019-05-12T04:17:18.358Z,99.99
2019-05-12T04:18:18.319Z,99.99
2019-05-12T04:19:18.304Z,99.99
2019-05-12T04:20:18.282Z,99.99
2019-05-12T04:21:18.259Z,99.99
2019-05-12T04:22:18.260Z,99.99
2019-05-12T04:23:18.236Z,99.99
2019-05-12T04:24:18.196Z,99.99
2019-05-12T04:25:18.180Z,99.99
2019-05-12T04:26:18.163Z,99.99
2019-05-12T04:27:18.140Z,99.99
2019-05-12T04:28:18.116Z,99.99
2019-05-12T04:29:18.119Z,99.99
2019-05-12T04:30:18.077Z,99.99
2019-05-12T04:31:18.100Z,99.99
2019-05-12T04:32:18.036Z,99.99
2019-05-12T04:33:18.016Z,99.99
2019-05-12T04:34:19.217Z,99.99
2019-05-12T04:35:17.978Z,99.99
2019-05-12T04:36:17.954Z,99.99
2019-05-12T04:37:17.953Z,99.99
2019-05-12T04:38:17.919Z,99.99
2019-05-12T04:39:17.896Z,99.99
2019-05-12T04:40:17.877Z,99.99
2019-05-12T04:41:19.970Z,99.99
2019-05-12T04:42:17.834Z,99.99
2019-05-12T04:43:17.830Z,99.99
2019-05-12T04:44:17.796Z,99.99
2019-05-12T04:45:17.772Z,99.99
2019-05-12T04:46:17.750Z,99.99
2019-05-12T04:47:17.753Z,99.99
2019-05-12T04:48:21.297Z,99.99
2019-05-12T04:49:17.715Z,99.99
2019-05-12T04:50:17.673Z,99.99
2019-05-12T04:51:17.673Z,99.99
2019-05-12T04:52:17.628Z,99.99
2019-05-12T04:53:17.652Z,99.99
2019-05-12T04:54:17.601Z,99.99
2019-05-12T04:55:17.569Z,99.99
2019-05-12T04:56:20.561Z,99.99
2019-05-12T04:57:20.972Z,99.99
2019-05-12T04:58:17.508Z,99.99
2019-05-12T04:59:17.492Z,99.99
2019-05-12T05:00:17.482Z,99.69
2019-05-12T05:01:17.458Z,99.78
2019-05-12T05:02:17.433Z,99.99
2019-05-12T05:03:17.410Z,99.88
2019-05-12T05:04:17.405Z,99.97
2019-05-12T05:05:17.398Z,99.59
2019-05-12T05:06:17.356Z,99.88
2019-05-12T05:07:17.348Z,99.69
2019-05-12T05:08:19.775Z,99.02
2019-05-12T05:09:17.293Z,99.40
2019-05-12T05:10:17.276Z,99.69
2019-05-12T05:11:17.246Z,99.40
2019-05-12T05:12:17.266Z,99.99
2019-05-12T05:13:17.215Z,99.78
2019-05-12T05:14:17.193Z,99.69
2019-05-12T05:15:17.168Z,99.78
2019-05-12T05:16:17.156Z,99.99
2019-05-12T05:17:17.130Z,99.99
2019-05-12T05:18:17.123Z,99.99
2019-05-12T05:19:17.273Z,99.99
2019-05-12T05:20:17.073Z,99.78
2019-05-12T05:21:17.048Z,99.99
2019-05-12T05:22:17.030Z,99.97
2019-05-12T05:23:17.026Z,99.99
2019-05-12T05:24:17.000Z,99.99
2019-05-12T05:25:16.968Z,99.97
2019-05-12T05:26:24.389Z,99.78
2019-05-12T05:27:16.930Z,99.99
2019-05-12T05:28:16.913Z,99.99
2019-05-12T05:29:16.888Z,99.99
2019-05-12T05:30:16.885Z,99.30
2019-05-12T05:31:16.848Z,98.64
2019-05-12T05:32:16.826Z,98.93
2019-05-12T05:33:19.785Z,99.59
2019-05-12T05:34:16.861Z,99.69
2019-05-12T05:35:16.769Z,99.59
2019-05-12T05:36:19.809Z,98.79
2019-05-12T05:37:16.731Z,99.16
2019-05-12T05:38:20.592Z,99.07
2019-05-12T05:39:16.698Z,97.83
2019-05-12T05:40:19.926Z,98.12
2019-05-12T05:41:16.674Z,97.74
2019-05-12T05:42:16.628Z,98.17
2019-05-12T05:43:18.411Z,96.84
2019-05-12T05:44:16.585Z,96.36
2019-05-12T05:45:22.130Z,96.36
2019-05-12T05:46:16.572Z,95.98
2019-05-12T05:47:19.768Z,96.26
2019-05-12T05:48:16.509Z,95.41
2019-05-12T05:49:16.488Z,95.70
2019-05-12T05:50:18.548Z,95.79
2019-05-12T05:51:16.447Z,95.03
2019-05-12T05:52:16.437Z,94.56
2019-05-12T05:53:19.627Z,94.37
2019-05-12T05:54:16.387Z,94.65
2019-05-12T05:55:20.134Z,94.08
2019-05-12T05:56:18.290Z,94.37
2019-05-12T05:57:20.101Z,94.74
2019-05-12T05:58:16.320Z,94.46
2019-05-12T05:59:16.288Z,94.27
2019-05-12T06:00:21.687Z,93.94
2019-05-12T06:01:16.254Z,94.79
2019-05-12T06:02:16.256Z,94.79
2019-05-12T06:03:22.966Z,94.03
2019-05-12T06:04:16.215Z,94.13
2019-05-12T06:05:20.027Z,94.22
2019-05-12T06:06:16.156Z,94.13
2019-05-12T06:07:16.135Z,94.13
2019-05-12T06:08:20.631Z,92.79
2019-05-12T06:09:16.096Z,92.60
2019-05-12T06:10:16.077Z,92.32
2019-05-12T06:11:23.929Z,92.22
2019-05-12T06:12:16.039Z,91.84
2019-05-12T06:13:16.013Z,92.41
2019-05-12T06:14:16.342Z,92.79
2019-05-12T06:15:15.979Z,92.79
2019-05-12T06:16:20.640Z,93.74
2019-05-12T06:17:15.936Z,93.55
2019-05-12T06:18:15.930Z,92.03
2019-05-12T06:19:15.899Z,93.03
2019-05-12T06:20:15.879Z,91.65
2019-05-12T06:21:15.878Z,91.03
2019-05-12T06:22:18.437Z,90.36
2019-05-12T06:23:15.823Z,89.41
2019-05-12T06:24:20.061Z,89.03
2019-05-12T06:25:16.426Z,90.17
2019-05-12T06:26:20.976Z,89.41
2019-05-12T06:27:20.776Z,88.31
2019-05-12T06:28:15.727Z,87.55
2019-05-12T06:29:20.276Z,87.93
2019-05-12T06:30:15.687Z,87.93
2019-05-12T06:31:19.004Z,88.03
2019-05-12T06:32:15.667Z,87.17
2019-05-12T06:33:15.629Z,87.17
2019-05-12T06:34:20.624Z,86.79
2019-05-12T06:35:15.595Z,86.41
2019-05-12T06:36:21.983Z,86.41
2019-05-12T06:37:17.134Z,86.88
2019-05-12T06:38:15.529Z,87.84
2019-05-12T06:39:19.371Z,86.88
2019-05-12T06:40:15.494Z,88.03
2019-05-12T06:41:20.480Z,86.88
2019-05-12T06:42:16.943Z,86.41
2019-05-12T06:43:15.449Z,86.12
2019-05-12T06:44:19.432Z,85.84
2019-05-12T06:45:15.400Z,86.51
2019-05-12T06:46:21.064Z,86.79
2019-05-12T06:47:15.357Z,88.03
2019-05-12T06:48:19.227Z,87.12
2019-05-12T06:49:17.452Z,86.36
2019-05-12T06:50:15.308Z,86.07
2019-05-12T06:51:22.164Z,86.16
2019-05-12T06:52:15.281Z,86.83
2019-05-12T06:53:15.249Z,86.21
2019-05-12T06:54:15.333Z,85.64
2019-05-12T06:55:15.213Z,84.49
2019-05-12T06:56:19.631Z,82.40
2019-05-12T06:57:24.189Z,81.15
2019-05-12T06:58:15.168Z,81.82
2019-05-12T06:59:15.137Z,80.39
2019-05-12T07:00:15.135Z,80.39
2019-05-12T07:01:19.372Z,80.54
2019-05-12T07:02:15.086Z,80.07
2019-05-12T07:03:19.330Z,81.21
2019-05-12T07:04:15.062Z,81.88
2019-05-12T07:05:15.032Z,82.45
2019-05-12T07:06:19.707Z,82.17
2019-05-12T07:07:14.982Z,81.30
2019-05-12T07:08:20.114Z,81.30
2019-05-12T07:09:24.193Z,82.26
2019-05-12T07:10:34.313Z,82.26
2019-05-12T07:11:14.933Z,81.21
2019-05-12T07:12:14.896Z,82.35
2019-05-12T07:13:23.245Z,82.35
2019-05-12T07:14:22.665Z,82.97
2019-05-12T07:15:14.872Z,82.20
2019-05-12T07:16:16.713Z,82.68
2019-05-12T07:17:14.854Z,82.30
2019-05-12T07:18:17.207Z,82.68
2019-05-12T07:19:21.002Z,81.44
2019-05-12T07:20:14.897Z,81.15
2019-05-12T07:21:19.452Z,81.25
2019-05-12T07:22:22.367Z,80.72
2019-05-12T07:23:19.851Z,80.33
2019-05-12T07:24:14.688Z,79.96
2019-05-12T07:25:14.653Z,79.10
2019-05-12T07:26:19.459Z,79.33
2019-05-12T07:27:14.630Z,79.43
2019-05-12T07:28:14.632Z,78.94
2019-05-12T07:29:14.603Z,78.66
2019-05-12T07:30:14.584Z,76.56
2019-05-12T07:31:14.541Z,76.56
2019-05-12T07:32:19.894Z,76.14
2019-05-12T07:33:14.770Z,76.23
2019-05-12T07:34:14.510Z,76.81
2019-05-12T07:35:14.829Z,77.44
2019-05-12T07:36:14.449Z,78.58
2019-05-12T07:37:15.306Z,78.77
2019-05-12T07:38:20.860Z,79.44
2019-05-12T07:39:14.398Z,78.96
2019-05-12T07:40:18.844Z,79.63
2019-05-12T07:41:14.523Z,79.63
2019-05-12T07:42:14.342Z,79.44
2019-05-12T07:43:16.348Z,78.06
2019-05-12T07:44:14.354Z,77.69
2019-05-12T07:45:20.632Z,77.97
2019-05-12T07:46:14.284Z,78.25
2019-05-12T07:47:19.071Z,78.16
2019-05-12T07:48:14.234Z,79.68
2019-05-12T07:49:14.221Z,79.02
2019-05-12T07:50:16.177Z,79.21
2019-05-12T07:51:14.186Z,78.92
2019-05-12T07:52:14.160Z,78.54
2019-05-12T07:53:14.621Z,77.30
2019-05-12T07:54:14.380Z,77.11
2019-05-12T07:55:14.793Z,77.97
2019-05-12T07:56:14.524Z,77.49
2019-05-12T07:57:17.345Z,77.01
2019-05-12T07:58:18.716Z,78.39
2019-05-12T07:59:14.060Z,78.35
2019-05-12T08:00:21.151Z,78.73
2019-05-12T08:01:14.582Z,78.73
2019-05-12T08:02:14.326Z,79.35
2019-05-12T08:03:19.115Z,78.77
2019-05-12T08:04:13.971Z,78.54
2019-05-12T08:05:19.432Z,78.67
2019-05-12T08:06:14.287Z,78.10
2019-05-12T08:07:14.501Z,78.01
2019-05-12T08:08:14.509Z,77.44
2019-05-12T08:09:13.844Z,77.49
2019-05-12T08:10:19.655Z,76.25
2019-05-12T08:11:14.962Z,76.25
2019-05-12T08:12:19.473Z,76.29
2019-05-12T08:13:14.811Z,76.48
2019-05-12T08:14:24.699Z,76.39
2019-05-12T08:15:14.198Z,77.44
2019-05-12T08:16:14.358Z,75.53
2019-05-12T08:17:18.849Z,76.48
2019-05-12T08:18:14.119Z,76.77
2019-05-12T08:19:23.309Z,75.47
2019-05-12T08:20:13.696Z,75.28
2019-05-12T08:21:14.135Z,74.80
2019-05-12T08:22:13.673Z,73.08
2019-05-12T08:23:14.119Z,73.37
2019-05-12T08:24:14.373Z,74.32
2019-05-12T08:25:13.689Z,74.99
2019-05-12T08:26:18.276Z,75.32
2019-05-12T08:27:14.299Z,75.60
2019-05-12T08:28:18.216Z,75.51
2019-05-12T08:29:16.909Z,75.54
2019-05-12T08:30:13.936Z,75.74
2019-05-12T08:31:14.103Z,73.25
2019-05-12T08:32:15.972Z,72.30
2019-05-12T08:33:14.663Z,71.44
2019-05-12T08:34:13.732Z,69.72
2019-05-12T08:35:13.925Z,70.67
2019-05-12T08:36:16.338Z,71.34
2019-05-12T08:37:13.943Z,71.44
2019-05-12T08:38:14.483Z,71.82
2019-05-12T08:39:21.063Z,70.29
2019-05-12T08:40:15.365Z,69.43
2019-05-12T08:41:14.631Z,70.33
2019-05-12T08:42:14.505Z,69.66
2019-05-12T08:43:14.895Z,70.20
2019-05-12T08:44:13.595Z,68.70
2019-05-12T08:45:23.963Z,68.61
2019-05-12T08:46:15.570Z,68.80
2019-05-12T08:47:15.157Z,68.32
2019-05-12T08:48:19.233Z,67.27
2019-05-12T08:49:14.362Z,68.13
2019-05-12T08:50:13.857Z,66.73
2019-05-12T08:51:14.524Z,67.94
2019-05-12T08:52:14.216Z,68.07
2019-05-12T08:53:20.350Z,68.35
2019-05-12T08:54:14.241Z,67.78
2019-05-12T08:55:16.312Z,67.30
2019-05-12T08:56:18.981Z,67.69
2019-05-12T08:57:14.298Z,67.11
2019-05-12T08:58:29.596Z,66.83
2019-05-12T08:59:17.505Z,67.49
2019-05-12T09:00:13.457Z,65.97
2019-05-12T09:01:13.814Z,64.82
2019-05-12T09:02:13.944Z,63.76
2019-05-12T09:03:14.173Z,63.57
2019-05-12T09:04:17.956Z,63.19
2019-05-12T09:05:14.405Z,62.52
2019-05-12T09:06:15.454Z,61.85
2019-05-12T09:07:13.838Z,61.35
2019-05-12T09:08:13.787Z,62.11
2019-05-12T09:09:13.980Z,62.68
2019-05-12T09:10:14.301Z,63.73
2019-05-12T09:11:13.964Z,63.26
2019-05-12T09:12:14.030Z,64.25
2019-05-12T09:13:14.452Z,64.34
2019-05-12T09:14:14.637Z,64.05
2019-05-12T09:15:13.603Z,64.02
2019-05-12T09:16:13.825Z,64.22
2019-05-12T09:17:13.837Z,64.15
2019-05-12T09:18:14.489Z,64.18
2019-05-12T09:19:16.634Z,63.13
2019-05-12T09:20:13.687Z,62.20
2019-05-12T09:21:14.082Z,62.40
2019-05-12T09:22:16.831Z,62.23
2019-05-12T09:31:29.559Z,56.71
2019-05-12T09:32:20.558Z,56.99
2019-05-12T09:33:26.296Z,59.01
2019-05-12T09:34:20.539Z,59.04
2019-05-12T09:35:20.531Z,58.08
2019-05-12T09:36:21.753Z,57.53
2019-05-12T09:37:20.521Z,55.90
2019-05-12T09:38:23.119Z,53.79
2019-05-12T09:39:20.465Z,54.11
2019-05-12T09:40:21.051Z,54.94
2019-05-12T09:41:21.049Z,56.41
2019-05-12T09:42:25.567Z,56.02
2019-05-12T09:43:20.455Z,55.16
2019-05-12T09:44:25.579Z,53.05
2019-05-12T09:45:20.396Z,53.82
2019-05-12T09:46:20.428Z,53.91
2019-05-12T09:47:25.214Z,54.88
2019-05-12T09:48:20.363Z,54.88
2019-05-12T09:49:22.737Z,52.86
2019-05-12T09:50:20.639Z,54.37
2019-05-12T09:51:20.328Z,55.80
2019-05-12T09:52:23.277Z,57.50
2019-05-12T09:53:20.350Z,56.90
2019-05-12T09:54:26.189Z,58.40
2019-05-12T09:55:22.104Z,59.14
2019-05-12T09:56:20.292Z,59.62
2019-05-12T09:57:20.285Z,59.88
2019-05-12T09:58:25.753Z,61.51
2019-05-12T09:59:23.157Z,62.20
2019-05-12T10:00:20.261Z,61.15
2019-05-12T10:01:20.232Z,60.70
2019-05-12T10:02:20.948Z,61.37
2019-05-12T10:03:20.204Z,59.68
2019-05-12T10:04:20.215Z,58.91
2019-05-12T10:05:20.221Z,57.28
2019-05-12T10:06:21.450Z,56.68
2019-05-12T10:07:20.156Z,57.42
2019-05-12T10:08:20.156Z,58.25
2019-05-12T10:09:20.160Z,58.76
2019-05-12T10:10:20.119Z,60.10
2019-05-12T10:11:20.969Z,58.50
2019-05-12T10:12:20.096Z,57.64
2019-05-12T10:13:25.094Z,57.38
2019-05-12T10:14:20.100Z,57.67
2019-05-12T10:15:24.737Z,56.45
2019-05-12T10:16:20.050Z,57.70
2019-05-12T10:17:25.119Z,55.42
2019-05-12T10:18:20.013Z,54.17
2019-05-12T10:19:20.009Z,55.71
2019-05-12T10:20:21.652Z,56.19
2019-05-12T10:21:19.988Z,55.26
2019-05-12T10:22:19.973Z,54.88
2019-05-12T10:23:24.130Z,55.16
2019-05-12T10:24:19.945Z,54.30
2019-05-12T10:25:23.252Z,53.53
2019-05-12T10:26:19.930Z,53.12
2019-05-12T10:27:20.995Z,55.07
2019-05-12T10:28:19.915Z,54.21
2019-05-12T10:29:20.989Z,51.90
2019-05-12T10:30:19.882Z,52.09
2019-05-12T10:31:19.854Z,53.34
2019-05-12T10:32:19.847Z,53.46
2019-05-12T10:33:19.836Z,52.22
2019-05-12T10:34:19.821Z,52.60
2019-05-12T10:35:21.336Z,53.17
2019-05-12T10:36:19.817Z,53.17
2019-05-12T10:37:25.258Z,52.38
2019-05-12T10:38:19.777Z,53.36
2019-05-12T10:39:19.755Z,52.40
2019-05-12T10:40:19.746Z,53.94
2019-05-12T10:41:19.748Z,52.72
2019-05-12T10:42:19.738Z,52.50
2019-05-12T10:43:19.708Z,51.16
2019-05-12T10:44:19.717Z,50.49
2019-05-12T10:45:20.736Z,52.53
2019-05-12T10:46:26.793Z,53.01
2019-05-12T10:47:19.671Z,51.93
2019-05-12T10:48:19.651Z,51.64
2019-05-12T10:49:19.637Z,52.50
2019-05-12T10:50:19.650Z,53.08
2019-05-12T10:51:23.715Z,52.48
2019-05-12T10:52:19.589Z,53.31
2019-05-12T10:53:19.646Z,51.63
2019-05-12T10:54:19.621Z,54.32
2019-05-12T10:55:19.555Z,54.60
2019-05-12T10:56:19.541Z,55.27
2019-05-12T10:57:19.527Z,55.27
2019-05-12T10:58:19.527Z,55.15
2019-05-12T10:59:30.151Z,55.36
2019-05-12T11:00:24.591Z,57.41
2019-05-12T11:01:19.466Z,56.83
2019-05-12T11:02:20.588Z,55.04
2019-05-12T11:03:19.445Z,53.72
2019-05-12T11:04:23.442Z,54.21
2019-05-12T11:05:25.843Z,54.01
2019-05-12T11:06:19.409Z,52.19
2019-05-12T11:07:23.001Z,51.51
2019-05-12T11:08:19.378Z,53.27
2019-05-12T11:09:21.319Z,52.98
2019-05-12T11:10:20.228Z,53.08
2019-05-12T11:11:19.333Z,53.36
2019-05-12T11:12:24.401Z,52.69
2019-05-12T11:13:19.307Z,52.12
2019-05-12T11:14:20.227Z,52.12
2019-05-12T11:15:19.276Z,52.57
2019-05-12T11:16:22.776Z,52.42
2019-05-12T11:17:19.248Z,52.62
2019-05-12T11:18:20.526Z,53.07
2019-05-12T11:19:19.229Z,54.60
2019-05-12T11:20:20.039Z,55.36
2019-05-12T11:21:19.221Z,57.41
2019-05-12T11:22:19.226Z,55.49
2019-05-12T11:23:19.165Z,55.90
2019-05-12T11:24:20.040Z,53.22
2019-05-12T11:25:19.138Z,53.72
2019-05-12T11:26:25.146Z,52.19
2019-05-12T11:27:19.114Z,51.42
2019-05-12T11:28:19.125Z,52.00
2019-05-12T11:29:19.102Z,52.67
2019-05-12T11:30:19.078Z,51.61
2019-05-12T11:31:20.043Z,51.61
2019-05-12T11:32:19.045Z,52.45
2019-05-12T11:33:19.159Z,53.03
2019-05-12T11:34:19.029Z,54.63
2019-05-12T11:35:19.019Z,54.79
2019-05-12T11:36:18.988Z,54.60
2019-05-12T11:37:18.987Z,54.89
2019-05-12T11:38:18.951Z,55.34
2019-05-12T11:39:18.971Z,57.09
2019-05-12T11:40:18.931Z,57.12
2019-05-12T11:41:20.277Z,56.76
2019-05-12T11:42:18.905Z,54.94
2019-05-12T11:43:18.881Z,54.30
2019-05-12T11:44:18.876Z,54.21
2019-05-12T11:45:18.889Z,53.66
2019-05-12T11:46:18.846Z,52.98
2019-05-12T11:47:24.427Z,53.11
2019-05-12T11:48:18.822Z,50.42
2019-05-12T11:49:21.720Z,51.18
2019-05-12T11:50:18.783Z,49.84
2019-05-12T11:51:20.715Z,50.34
2019-05-12T11:52:19.497Z,51.98
2019-05-12T11:53:21.920Z,51.88
2019-05-12T11:54:18.724Z,50.18
2019-05-12T11:55:21.447Z,49.99
2019-05-12T11:56:18.704Z,49.12
2019-05-12T11:57:20.072Z,48.83
2019-05-12T11:58:18.670Z,48.90
2019-05-12T11:59:18.689Z,48.69
2019-05-12T12:00:18.649Z,49.17
2019-05-12T12:01:18.633Z,49.07
2019-05-12T12:02:20.098Z,49.29
2019-05-12T12:03:18.688Z,49.57
2019-05-12T12:04:19.582Z,49.96
2019-05-12T12:05:18.613Z,49.77
2019-05-12T12:06:18.566Z,50.05
2019-05-12T12:07:18.565Z,49.29
2019-05-12T12:08:18.541Z,49.29
2019-05-12T12:09:19.036Z,50.63
2019-05-12T12:10:18.512Z,52.65
2019-05-12T12:11:24.518Z,50.61
2019-05-12T12:12:18.490Z,50.87
2019-05-12T12:13:19.250Z,50.94
2019-05-12T12:14:18.453Z,50.63
2019-05-12T12:15:20.368Z,51.10
2019-05-12T12:16:18.467Z,52.57
2019-05-12T12:17:22.829Z,52.19
2019-05-12T12:18:18.406Z,51.73
2019-05-12T12:19:18.394Z,52.89
2019-05-12T12:20:22.449Z,49.62
2019-05-12T12:21:18.359Z,49.24
2019-05-12T12:22:20.416Z,50.23
2019-05-12T12:23:20.110Z,49.36
2019-05-12T12:24:21.315Z,49.87
2019-05-12T12:25:18.301Z,49.38
2019-05-12T12:26:20.092Z,50.54
2019-05-12T12:27:18.283Z,48.35
2019-05-12T12:28:18.278Z,48.45
2019-05-12T12:29:19.080Z,49.02
2019-05-12T12:30:19.904Z,49.31
2019-05-12T12:31:18.219Z,49.31
2019-05-12T12:32:20.274Z,48.25
2019-05-12T12:33:18.207Z,47.63
2019-05-12T12:34:23.815Z,47.82
2019-05-12T12:35:18.169Z,49.38
2019-05-12T12:36:20.826Z,48.43
2019-05-12T12:37:18.774Z,49.31
2019-05-12T12:38:18.140Z,49.60
2019-05-12T12:39:18.116Z,47.00
2019-05-12T12:40:18.095Z,48.38
2019-05-12T12:41:18.085Z,49.60
2019-05-12T12:42:18.072Z,48.64
2019-05-12T12:43:18.083Z,48.61
2019-05-12T12:44:18.039Z,50.25
2019-05-12T12:45:18.029Z,49.31
2019-05-12T12:46:21.448Z,48.83
2019-05-12T12:47:17.990Z,49.43
2019-05-12T12:48:19.439Z,47.87
2019-05-12T12:49:18.031Z,48.74
2019-05-12T12:50:20.269Z,48.83
2019-05-12T12:51:17.957Z,49.02
2019-05-12T12:52:17.936Z,49.33
2019-05-12T12:53:17.929Z,47.41
2019-05-12T12:54:17.903Z,48.18
2019-05-12T12:55:17.919Z,46.36
2019-05-12T12:56:28.290Z,48.28
2019-05-12T12:57:19.249Z,45.59
2019-05-12T12:58:24.130Z,48.69
2019-05-12T12:59:17.833Z,47.34
2019-05-12T13:00:28.887Z,47.63